Schneifelwetter: Wetterstation Hallschlag, 537 m . NN
Wetterdaten: Freitag, 06.06.2008
Datum Zeit Temp. A. Temp. 2 Feuchte A. Luftdruck Regen Wind Richtung Richtung Sonnenschein Helligkeit T Regen Taupunkt Windchill
06.06.2008 00:10 14,1 C 14,0 C 93 % 1013 hPa 0,0 l/m 6,7 km/h (2 Bft) N-NW22.5 330 0 min 0 lux 0,00 min 13,0 C 13,9 C
06.06.2008 00:25 14,0 C 13,9 C 93 % 1013 hPa 0,0 l/m 6,4 km/h (2 Bft) N-NW22.5 345 0 min 0 lux 0,00 min 12,9 C 14,0 C
06.06.2008 00:40 13,9 C 13,8 C 93 % 1013 hPa 0,0 l/m 5,8 km/h (2 Bft) NW45 315 0 min 0 lux 0,00 min 12,8 C 13,9 C
06.06.2008 00:55 13,8 C 13,7 C 93 % 1013 hPa 0,0 l/m 5,7 km/h (1 Bft) N-NW22.5 330 0 min 0 lux 0,00 min 12,7 C 13,8 C
06.06.2008 01:10 13,7 C 13,6 C 93 % 1013 hPa 0,0 l/m 10,6 km/h (2 Bft) N22.5 10 0 min 0 lux 0,00 min 12,6 C 11,4 C
06.06.2008 01:25 13,7 C 13,5 C 94 % 1013 hPa 0,0 l/m 9,4 km/h (2 Bft) N22.5 360 0 min 0 lux 0,00 min 12,8 C 12,0 C
06.06.2008 01:40 13,6 C 13,4 C 93 % 1012 hPa 0,0 l/m 3,3 km/h (1 Bft) N 5 0 min 0 lux 0,00 min 12,5 C 13,6 C
06.06.2008 01:56 13,5 C 13,3 C 94 % 1012 hPa 0,0 l/m 6,1 km/h (2 Bft) N-NO22.5 15 0 min 0 lux 0,00 min 12,6 C 13,5 C
06.06.2008 02:11 13,5 C 13,2 C 94 % 1012 hPa 0,0 l/m 4,8 km/h (1 Bft) N22.5 5 0 min 0 lux 0,00 min 12,6 C 13,5 C
06.06.2008 02:26 13,4 C 13,1 C 94 % 1012 hPa 0,0 l/m 7,7 km/h (2 Bft) N22.5 10 0 min 0 lux 0,00 min 12,5 C 12,6 C
06.06.2008 02:41 13,3 C 12,8 C 94 % 1012 hPa 0,0 l/m 0,9 km/h (0 Bft) N-NO 15 0 min 0 lux 0,00 min 12,4 C 13,3 C
06.06.2008 02:56 13,2 C 12,7 C 94 % 1012 hPa 0,0 l/m 7,7 km/h (2 Bft) N-NO22.5 25 0 min 0 lux 0,00 min 12,3 C 12,4 C
06.06.2008 03:11 13,2 C 12,7 C 94 % 1012 hPa 0,0 l/m 9,4 km/h (2 Bft) N-NO22.5 20 0 min 0 lux 0,00 min 12,3 C 11,4 C
06.06.2008 03:26 13,2 C 12,7 C 94 % 1012 hPa 0,0 l/m 13,1 km/h (3 Bft) N-NO22.5 15 0 min 0 lux 0,00 min 12,3 C 9,7 C
06.06.2008 03:41 13,2 C 12,7 C 94 % 1012 hPa 0,0 l/m 12,3 km/h (3 Bft) N-NO22.5 20 0 min 0 lux 0,00 min 12,3 C 10,1 C
06.06.2008 03:56 13,2 C 12,7 C 94 % 1012 hPa 0,0 l/m 13,0 km/h (3 Bft) N-NO22.5 15 0 min 0 lux 0,00 min 12,3 C 9,8 C
06.06.2008 04:11 13,2 C 12,7 C 94 % 1012 hPa 0,0 l/m 13,5 km/h (3 Bft) N-NO22.5 25 0 min 0 lux 0,00 min 12,3 C 9,6 C
06.06.2008 04:26 13,1 C 12,7 C 95 % 1012 hPa 0,0 l/m 7,7 km/h (2 Bft) N22.5 10 0 min 0 lux 0,00 min 12,3 C 12,3 C
06.06.2008 04:40 13,1 C 12,7 C 95 % 1012 hPa 0,0 l/m 11,6 km/h (2 Bft) N-NO22.5 25 0 min 0 lux 0,00 min 12,3 C 10,3 C
06.06.2008 04:55 13,0 C 12,7 C 95 % 1012 hPa 0,0 l/m 13,1 km/h (3 Bft) N-NO45 20 0 min 0 lux 0,00 min 12,2 C 9,5 C
06.06.2008 05:10 12,9 C 12,7 C 95 % 1012 hPa 0,0 l/m 11,5 km/h (2 Bft) N-NO22.5 30 0 min 125 lux 0,00 min 12,1 C 10,1 C
06.06.2008 05:25 12,9 C 12,6 C 95 % 1012 hPa 0,0 l/m 19,6 km/h (3 Bft) N-NO67.5 20 0 min 624 lux 0,00 min 12,1 C 7,1 C
06.06.2008 05:40 12,7 C 12,3 C 94 % 1012 hPa 0,0 l/m 13,9 km/h (3 Bft) N-NO22.5 25 0 min 1,69 klux 0,00 min 11,8 C 8,8 C
06.06.2008 05:55 12,7 C 12,3 C 95 % 1012 hPa 0,0 l/m 9,8 km/h (2 Bft) N-NO 25 0 min 3,67 klux 0,00 min 11,9 C 10,7 C
06.06.2008 06:10 12,7 C 12,4 C 94 % 1012 hPa 0,0 l/m 7,6 km/h (2 Bft) NO22.5 40 0 min 4,65 klux 0,00 min 11,8 C 11,9 C
06.06.2008 06:25 12,8 C 12,8 C 94 % 1012 hPa 0,0 l/m 6,3 km/h (2 Bft) NO22.5 40 0 min 5,57 klux 0,00 min 11,9 C 12,8 C
06.06.2008 06:40 13,2 C 13,2 C 94 % 1012 hPa 0,0 l/m 8,7 km/h (2 Bft) NO45 45 0 min 7,17 klux 0,00 min 12,3 C 11,8 C
06.06.2008 06:55 13,4 C 13,7 C 93 % 1012 hPa 0,0 l/m 13,5 km/h (3 Bft) N-NO22.5 30 0 min 9,00 klux 0,00 min 12,3 C 9,8 C
06.06.2008 07:16 13,6 C 14,1 C 92 % 1012 hPa 0,0 l/m 15,1 km/h (3 Bft) N-NO22.5 25 0 min 10,8 klux 0,00 min 12,3 C 9,5 C
06.06.2008 07:31 14,6 C 15,0 C 89 % 1012 hPa 0,0 l/m 18,9 km/h (3 Bft) N-NO22.5 30 0 min 27,8 klux 0,00 min 12,8 C 9,5 C
06.06.2008 07:47 15,3 C 15,6 C 87 % 1012 hPa 0,0 l/m 14,1 km/h (3 Bft) NO45 40 0 min 31,6 klux 0,00 min 13,1 C 11,9 C
06.06.2008 08:01 16,0 C 16,6 C 85 % 1011 hPa 0,0 l/m 12,1 km/h (2 Bft) O-NO45 60 0 min 26,6 klux 0,00 min 13,5 C 13,4 C
06.06.2008 08:16 15,8 C 17,0 C 84 % 1012 hPa 0,0 l/m 15,1 km/h (3 Bft) O-NO22.5 70 0 min 27,5 klux 0,00 min 13,1 C 12,1 C
06.06.2008 08:31 15,7 C 17,2 C 83 % 1012 hPa 0,0 l/m 16,0 km/h (3 Bft) NO22.5 55 0 min 29,7 klux 0,00 min 12,8 C 11,7 C
06.06.2008 08:46 16,4 C 17,9 C 80 % 1012 hPa 0,0 l/m 16,1 km/h (3 Bft) NO22.5 45 0 min 44,3 klux 0,00 min 12,9 C 12,6 C
06.06.2008 09:01 17,3 C 18,9 C 79 % 1012 hPa 0,0 l/m 12,1 km/h (2 Bft) O-NO22.5 60 15 min 65,8 klux 0,00 min 13,6 C 14,9 C
06.06.2008 09:16 18,2 C 20,0 C 77 % 1012 hPa 0,0 l/m 12,3 km/h (3 Bft) NO45 45 15 min 63,9 klux 0,00 min 14,1 C 15,9 C
06.06.2008 09:31 18,2 C 20,4 C 75 % 1012 hPa 0,0 l/m 15,8 km/h (3 Bft) NO45 50 15 min 66,5 klux 0,00 min 13,7 C 14,9 C
06.06.2008 09:47 18,0 C 19,8 C 73 % 1012 hPa 0,0 l/m 14,1 km/h (3 Bft) O-NO67.5 60 0 min 33,4 klux 0,00 min 13,1 C 15,1 C
06.06.2008 10:01 17,3 C 19,6 C 76 % 1012 hPa 0,0 l/m 12,6 km/h (3 Bft) NO45 35 0 min 34,4 klux 0,00 min 13,0 C 14,7 C
06.06.2008 10:16 17,2 C 19,1 C 76 % 1012 hPa 0,0 l/m 11,1 km/h (2 Bft) O-NO22.5 60 0 min 29,4 klux 0,00 min 12,9 C 15,1 C
06.06.2008 10:31 17,6 C 19,5 C 77 % 1012 hPa 0,0 l/m 11,1 km/h (2 Bft) O-NO22.5 65 0 min 44,1 klux 0,00 min 13,5 C 15,6 C
06.06.2008 10:46 18,0 C 19,7 C 77 % 1012 hPa 0,0 l/m 8,7 km/h (2 Bft) O-NO45 70 0 min 34,7 klux 0,00 min 13,9 C 16,9 C
06.06.2008 11:01 18,2 C 20,0 C 75 % 1011 hPa 0,0 l/m 11,4 km/h (2 Bft) O-NO45 75 0 min 46,2 klux 0,00 min 13,7 C 16,2 C
06.06.2008 11:16 18,8 C 20,8 C 73 % 1011 hPa 0,0 l/m 14,8 km/h (3 Bft) O-NO45 70 0 min 47,6 klux 0,00 min 13,9 C 15,8 C
06.06.2008 11:32 18,7 C 21,0 C 74 % 1012 hPa 0,0 l/m 12,9 km/h (3 Bft) O-NO45 70 0 min 42,4 klux 0,00 min 14,0 C 16,3 C
06.06.2008 11:46 18,6 C 20,7 C 74 % 1012 hPa 0,0 l/m 14,7 km/h (3 Bft) NO22.5 55 0 min 31,4 klux 0,00 min 13,9 C 15,6 C
06.06.2008 12:01 18,5 C 20,3 C 74 % 1011 hPa 0,0 l/m 12,0 km/h (2 Bft) O45 90 0 min 28,3 klux 0,00 min 13,8 C 16,3 C
06.06.2008 12:16 18,4 C 19,7 C 75 % 1011 hPa 0,0 l/m 10,7 km/h (2 Bft) O-NO22.5 60 0 min 23,4 klux 0,00 min 13,9 C 16,6 C
06.06.2008 12:31 18,0 C 19,0 C 76 % 1012 hPa 0,0 l/m 7,2 km/h (2 Bft) O22.5 80 0 min 18,5 klux 0,00 min 13,7 C 17,6 C
06.06.2008 12:46 18,5 C 19,7 C 75 % 1012 hPa 0,0 l/m 11,1 km/h (2 Bft) NO22.5 50 0 min 38,8 klux 0,00 min 14,0 C 16,6 C
06.06.2008 13:01 19,0 C 20,4 C 74 % 1012 hPa 0,0 l/m 10,1 km/h (2 Bft) O-NO45 60 0 min 35,5 klux 0,00 min 14,3 C 17,5 C
06.06.2008 13:17 19,1 C 20,3 C 74 % 1012 hPa 0,0 l/m 10,9 km/h (2 Bft) NO22.5 50 0 min 24,5 klux 0,00 min 14,4 C 17,3 C
06.06.2008 13:16 19,1 C 20,3 C 74 % 1012 hPa 0,0 l/m 10,9 km/h (2 Bft) NO22.5 50 0 min 24,5 klux 0,00 min 14,4 C 17,3 C
06.06.2008 13:31 19,2 C 20,5 C 74 % 1012 hPa 0,0 l/m 8,1 km/h (2 Bft) NO22.5 55 0 min 27,2 klux 0,00 min 14,4 C 18,5 C
06.06.2008 13:46 18,9 C 20,2 C 74 % 1012 hPa 0,0 l/m 6,8 km/h (2 Bft) NO22.5 50 0 min 21,5 klux 0,00 min 14,2 C 18,7 C
06.06.2008 14:01 18,4 C 19,6 C 76 % 1012 hPa 0,0 l/m 12,0 km/h (2 Bft) NO45 40 0 min 14,2 klux 0,00 min 14,1 C 16,2 C
06.06.2008 14:16 17,5 C 18,6 C 79 % 1012 hPa 0,0 l/m 19,3 km/h (3 Bft) O-NO22.5 65 0 min 8,66 klux 0,00 min 13,8 C 13,1 C
06.06.2008 14:31 16,8 C 17,3 C 82 % 1012 hPa 0,6 l/m 15,5 km/h (3 Bft) O-NO22.5 60 0 min 7,53 klux 15,00 min 13,7 C 13,2 C
06.06.2008 14:47 16,1 C 16,5 C 85 % 1012 hPa 5,1 l/m 9,2 km/h (2 Bft) NO45 45 0 min 11,2 klux 16,00 min 13,6 C 14,7 C
06.06.2008 15:01 15,9 C 16,1 C 87 % 1012 hPa 1,8 l/m 6,3 km/h (2 Bft) NW 320 0 min 11,0 klux 14,00 min 13,7 C 15,9 C
06.06.2008 15:16 15,7 C 15,8 C 88 % 1012 hPa 0,0 l/m 5,6 km/h (1 Bft) N-NW22.5 340 0 min 7,98 klux 0,00 min 13,7 C 15,7 C
06.06.2008 15:31 15,6 C 15,7 C 89 % 1012 hPa 0,0 l/m 6,7 km/h (2 Bft) N 5 0 min 8,06 klux 0,00 min 13,8 C 15,4 C
06.06.2008 15:46 15,6 C 15,7 C 90 % 1012 hPa 0,0 l/m 3,9 km/h (1 Bft) N 5 0 min 8,14 klux 0,00 min 14,0 C 15,6 C
06.06.2008 16:01 15,6 C 15,8 C 90 % 1012 hPa 0,0 l/m 6,9 km/h (2 Bft) N-NO 15 0 min 7,58 klux 0,00 min 14,0 C 15,3 C
06.06.2008 16:16 15,6 C 15,9 C 90 % 1012 hPa 0,0 l/m 0,3 km/h (0 Bft) N-NO 15 0 min 9,3 klux 0,00 min 14,0 C 15,6 C
06.06.2008 16:31 15,8 C 16,3 C 90 % 1012 hPa 0,0 l/m 0,0 km/h (0 Bft) N-NO 15 0 min 13,0 klux 0,00 min 14,2 C 15,8 C
06.06.2008 16:47 16,0 C 16,6 C 89 % 1012 hPa 0,0 l/m 0,0 km/h (0 Bft) N-NO 15 0 min 12,7 klux 0,00 min 14,2 C 16,0 C
06.06.2008 17:01 15,9 C 16,6 C 90 % 1012 hPa 0,0 l/m 5,3 km/h (1 Bft) N 10 0 min 8,52 klux 0,00 min 14,3 C 15,9 C
06.06.2008 17:16 15,7 C 16,5 C 90 % 1012 hPa 0,0 l/m 7,8 km/h (2 Bft) N-NO 15 0 min 8,82 klux 0,00 min 14,1 C 14,9 C
06.06.2008 17:31 15,6 C 16,4 C 91 % 1012 hPa 0,0 l/m 10,6 km/h (2 Bft) NO 50 0 min 6,74 klux 0,00 min 14,1 C 13,5 C
06.06.2008 17:46 15,4 C 16,1 C 90 % 1012 hPa 0,0 l/m 10,5 km/h (2 Bft) NO22.5 35 0 min 7,42 klux 0,00 min 13,8 C 13,3 C
06.06.2008 18:01 15,0 C 15,7 C 90 % 1012 hPa 0,0 l/m 11,0 km/h (2 Bft) N-NO22.5 25 0 min 6,45 klux 0,00 min 13,4 C 12,7 C
06.06.2008 18:16 14,9 C 15,4 C 90 % 1012 hPa 0,0 l/m 6,5 km/h (2 Bft) N-NO 30 0 min 3,56 klux 0,00 min 13,3 C 14,9 C
06.06.2008 18:32 14,6 C 15,0 C 90 % 1012 hPa 0,0 l/m 9,1 km/h (2 Bft) N-NO 25 0 min 3,06 klux 0,00 min 13,0 C 13,1 C
06.06.2008 18:46 14,4 C 14,7 C 90 % 1012 hPa 0,0 l/m 6,8 km/h (2 Bft) NO 55 0 min 3,50 klux 0,00 min 12,8 C 14,2 C
06.06.2008 19:01 14,4 C 14,6 C 90 % 1012 hPa 0,0 l/m 4,0 km/h (1 Bft) N-NO 30 0 min 3,57 klux 0,00 min 12,8 C 14,4 C
06.06.2008 19:16 14,4 C 14,4 C 90 % 1012 hPa 0,0 l/m 6,0 km/h (2 Bft) N45 350 0 min 3,31 klux 0,00 min 12,8 C 14,4 C
06.06.2008 19:31 14,4 C 14,3 C 91 % 1012 hPa 0,0 l/m 0,6 km/h (0 Bft) NW 325 0 min 3,28 klux 0,00 min 12,9 C 14,4 C
06.06.2008 19:46 14,4 C 14,2 C 91 % 1012 hPa 0,0 l/m 0,0 km/h (0 Bft) NW 325 0 min 3,63 klux 0,00 min 12,9 C 14,4 C
06.06.2008 20:01 14,3 C 14,1 C 92 % 1012 hPa 0,0 l/m 5,7 km/h (1 Bft) W-SW 245 0 min 2,04 klux 0,00 min 13,0 C 14,3 C
06.06.2008 20:16 14,2 C 13,9 C 92 % 1012 hPa 0,0 l/m 7,9 km/h (2 Bft) W22.5 270 0 min 1,83 klux 0,00 min 12,9 C 13,3 C
06.06.2008 20:32 14,1 C 13,8 C 92 % 1012 hPa 0,0 l/m 8,4 km/h (2 Bft) W 265 0 min 1,20 klux 0,00 min 12,8 C 12,9 C
06.06.2008 20:46 13,9 C 13,6 C 92 % 1012 hPa 0,3 l/m 2,4 km/h (1 Bft) S 175 0 min 868 lux 14,00 min 12,6 C 13,9 C
06.06.2008 21:01 13,8 C 13,5 C 92 % 1012 hPa 0,0 l/m 10,2 km/h (2 Bft) W22.5 270 0 min 797 lux 0,00 min 12,5 C 11,7 C
06.06.2008 21:16 13,7 C 13,4 C 92 % 1012 hPa 0,0 l/m 8,2 km/h (2 Bft) W-SW 255 0 min 635 lux 0,00 min 12,4 C 12,6 C
06.06.2008 21:31 13,6 C 13,3 C 93 % 1012 hPa 0,0 l/m 4,5 km/h (1 Bft) W-SW 255 0 min 456 lux 0,00 min 12,5 C 13,6 C
06.06.2008 21:46 13,5 C 13,3 C 93 % 1012 hPa 0,0 l/m 4,2 km/h (1 Bft) SW 225 0 min 228 lux 0,00 min 12,4 C 13,5 C
06.06.2008 22:01 13,4 C 13,1 C 93 % 1012 hPa 0,0 l/m 0,0 km/h (0 Bft) SW 225 0 min 88 lux 0,00 min 12,3 C 13,4 C
06.06.2008 22:17 13,3 C 13,0 C 94 % 1013 hPa 0,0 l/m 0,0 km/h (0 Bft) SW 225 0 min 24 lux 0,00 min 12,4 C 13,3 C
06.06.2008 22:31 13,3 C 13,1 C 94 % 1013 hPa 0,0 l/m 0,0 km/h (0 Bft) SW 225 0 min 3 lux 0,00 min 12,4 C 13,3 C
06.06.2008 22:46 13,4 C 13,2 C 95 % 1013 hPa 0,0 l/m 0,4 km/h (0 Bft) SW 225 0 min 0 lux 0,00 min 12,6 C 13,4 C
06.06.2008 23:01 13,5 C 13,3 C 95 % 1013 hPa 0,0 l/m 4,0 km/h (1 Bft) W45 260 0 min 0 lux 0,00 min 12,7 C 13,5 C
06.06.2008 23:16 13,5 C 13,3 C 95 % 1013 hPa 0,0 l/m 1,6 km/h (1 Bft) NW 320 0 min 0 lux 0,00 min 12,7 C 13,5 C
06.06.2008 23:31 13,4 C 13,3 C 95 % 1013 hPa 0,0 l/m 5,7 km/h (1 Bft) NW22.5 325 0 min 0 lux 0,00 min 12,6 C 13,4 C
06.06.2008 23:46 13,4 C 13,3 C 95 % 1013 hPa 0,0 l/m 4,7 km/h (1 Bft) NW22.5 325 0 min 0 lux 0,00 min 12,6 C 13,4 C
_ Min-Zeit 05:40 05:40 09:47 08:01 - 16:31 - - - - - 05:40 05:25
Minimum _ 12,7 C 12,3 C 73 % 1011 hPa - 0,0 km/h (0 Bft) - - - - - 11,8 C 7,1 C
_ Max-Zeit 13:31 11:32 04:26 00:10 14:47 05:25 - - 09:01 09:31 14:47 13:31 13:46
Maximum _ 19,2 C 21,0 C 95 % 1013 hPa 5,1 l/m 19,6 km/h
N-NO (3 Bft)
- - 15 min 66,5 klux 16,00 min 14,4 C 18,7 C
Durchschnitt _ 15,2 C 15,6 C 88 % 1012 hPa #7,8 l/m 8,7 km/h (2 Bft) N-NO - #45 min. 12,5 klux #59 min. 13,1 C 13,7 C